sensor_id;sensor_type;location;lat;lon;timestamp;P1;durP1;ratioP1;P2;durP2;ratioP2
9108;SDS011;4590;51.462;6.692;2022-09-09T00:00:17;1.10;;;0.30;;
9108;SDS011;4590;51.462;6.692;2022-09-09T00:02:46;0.98;;;0.30;;
9108;SDS011;4590;51.462;6.692;2022-09-09T00:05:23;1.30;;;0.38;;
9108;SDS011;4590;51.462;6.692;2022-09-09T00:07:52;1.02;;;0.30;;
9108;SDS011;4590;51.462;6.692;2022-09-09T00:15:41;0.73;;;0.25;;
9108;SDS011;4590;51.462;6.692;2022-09-09T00:18:24;0.95;;;0.30;;
9108;SDS011;4590;51.462;6.692;2022-09-09T00:20:58;2.50;;;0.50;;
9108;SDS011;4590;51.462;6.692;2022-09-09T00:23:53;1.42;;;0.40;;
9108;SDS011;4590;51.462;6.692;2022-09-09T00:29:18;1.35;;;0.50;;
9108;SDS011;4590;51.462;6.692;2022-09-09T00:32:05;1.45;;;0.70;;
9108;SDS011;4590;51.462;6.692;2022-09-09T00:34:37;2.28;;;0.60;;
9108;SDS011;4590;51.462;6.692;2022-09-09T00:37:08;2.15;;;0.60;;
9108;SDS011;4590;51.462;6.692;2022-09-09T00:39:34;1.40;;;0.40;;
9108;SDS011;4590;51.462;6.692;2022-09-09T00:42:18;2.35;;;0.57;;
9108;SDS011;4590;51.462;6.692;2022-09-09T00:55:33;1.60;;;0.45;;
9108;SDS011;4590;51.462;6.692;2022-09-09T00:58:06;3.03;;;0.75;;
9108;SDS011;4590;51.462;6.692;2022-09-09T01:00:44;1.33;;;0.52;;
9108;SDS011;4590;51.462;6.692;2022-09-09T01:03:33;1.08;;;0.50;;
9108;SDS011;4590;51.462;6.692;2022-09-09T01:06:46;2.30;;;0.70;;
9108;SDS011;4590;51.462;6.692;2022-09-09T01:09:08;1.10;;;0.43;;
9108;SDS011;4590;51.462;6.692;2022-09-09T01:20:04;2.03;;;0.60;;
9108;SDS011;4590;51.462;6.692;2022-09-09T01:22:40;1.10;;;0.45;;
9108;SDS011;4590;51.462;6.692;2022-09-09T01:28:21;0.90;;;0.47;;
9108;SDS011;4590;51.462;6.692;2022-09-09T01:30:50;1.63;;;0.73;;
9108;SDS011;4590;51.462;6.692;2022-09-09T01:33:16;2.07;;;0.90;;
9108;SDS011;4590;51.462;6.692;2022-09-09T01:35:46;2.72;;;1.60;;
9108;SDS011;4590;51.462;6.692;2022-09-09T01:38:13;2.22;;;1.55;;
9108;SDS011;4590;51.462;6.692;2022-09-09T01:40:39;2.83;;;1.50;;
9108;SDS011;4590;51.462;6.692;2022-09-09T01:43:05;2.85;;;1.63;;
9108;SDS011;4590;51.462;6.692;2022-09-09T01:45:32;2.05;;;1.60;;
9108;SDS011;4590;51.462;6.692;2022-09-09T01:47:58;29.73;;;2.67;;
9108;SDS011;4590;51.462;6.692;2022-09-09T01:50:25;3.55;;;1.75;;
9108;SDS011;4590;51.462;6.692;2022-09-09T01:52:52;1.98;;;1.33;;
9108;SDS011;4590;51.462;6.692;2022-09-09T01:55:29;2.10;;;1.30;;
9108;SDS011;4590;51.462;6.692;2022-09-09T02:01:02;3.22;;;1.30;;
9108;SDS011;4590;51.462;6.692;2022-09-09T02:03:34;2.15;;;1.42;;
9108;SDS011;4590;51.462;6.692;2022-09-09T02:08:39;1.75;;;0.93;;
9108;SDS011;4590;51.462;6.692;2022-09-09T02:11:14;2.15;;;0.82;;
9108;SDS011;4590;51.462;6.692;2022-09-09T02:13:43;2.17;;;0.90;;
9108;SDS011;4590;51.462;6.692;2022-09-09T02:19:01;2.20;;;0.90;;
9108;SDS011;4590;51.462;6.692;2022-09-09T02:21:33;5.60;;;1.20;;
9108;SDS011;4590;51.462;6.692;2022-09-09T02:24:00;1.52;;;0.90;;
9108;SDS011;4590;51.462;6.692;2022-09-09T02:26:29;2.47;;;0.90;;
9108;SDS011;4590;51.462;6.692;2022-09-09T02:28:58;2.88;;;1.05;;
9108;SDS011;4590;51.462;6.692;2022-09-09T02:31:26;2.42;;;0.82;;
9108;SDS011;4590;51.462;6.692;2022-09-09T02:33:52;2.13;;;0.90;;
9108;SDS011;4590;51.462;6.692;2022-09-09T02:36:22;1.70;;;0.75;;
9108;SDS011;4590;51.462;6.692;2022-09-09T02:38:50;2.58;;;0.85;;
9108;SDS011;4590;51.462;6.692;2022-09-09T02:41:19;1.45;;;0.75;;
9108;SDS011;4590;51.462;6.692;2022-09-09T02:43:47;1.65;;;0.77;;
9108;SDS011;4590;51.462;6.692;2022-09-09T02:46:23;3.47;;;0.93;;
9108;SDS011;4590;51.462;6.692;2022-09-09T02:49:04;1.77;;;0.77;;
9108;SDS011;4590;51.462;6.692;2022-09-09T02:51:52;2.45;;;1.00;;
9108;SDS011;4590;51.462;6.692;2022-09-09T02:54:30;1.90;;;0.93;;
9108;SDS011;4590;51.462;6.692;2022-09-09T02:59:37;3.08;;;0.73;;
9108;SDS011;4590;51.462;6.692;2022-09-09T03:02:04;5.22;;;1.00;;
9108;SDS011;4590;51.462;6.692;2022-09-09T03:04:29;2.08;;;0.90;;
9108;SDS011;4590;51.462;6.692;2022-09-09T03:06:56;3.47;;;1.30;;
9108;SDS011;4590;51.462;6.692;2022-09-09T03:11:47;2.40;;;0.63;;
9108;SDS011;4590;51.462;6.692;2022-09-09T03:14:14;2.58;;;0.90;;
9108;SDS011;4590;51.462;6.692;2022-09-09T03:16:40;2.58;;;1.25;;
9108;SDS011;4590;51.462;6.692;2022-09-09T03:19:07;3.42;;;1.10;;
9108;SDS011;4590;51.462;6.692;2022-09-09T03:21:32;3.17;;;0.80;;
9108;SDS011;4590;51.462;6.692;2022-09-09T03:23:58;2.30;;;0.90;;
9108;SDS011;4590;51.462;6.692;2022-09-09T03:26:23;1.80;;;0.67;;
9108;SDS011;4590;51.462;6.692;2022-09-09T03:28:49;1.75;;;0.77;;
9108;SDS011;4590;51.462;6.692;2022-09-09T03:31:16;2.22;;;1.08;;
9108;SDS011;4590;51.462;6.692;2022-09-09T03:33:41;1.83;;;0.83;;
9108;SDS011;4590;51.462;6.692;2022-09-09T03:36:07;2.23;;;0.90;;
9108;SDS011;4590;51.462;6.692;2022-09-09T03:38:33;2.20;;;0.70;;
9108;SDS011;4590;51.462;6.692;2022-09-09T03:40:59;2.27;;;1.27;;
9108;SDS011;4590;51.462;6.692;2022-09-09T03:43:25;3.33;;;0.90;;
9108;SDS011;4590;51.462;6.692;2022-09-09T03:48:17;2.90;;;0.88;;
9108;SDS011;4590;51.462;6.692;2022-09-09T03:53:13;2.03;;;0.60;;
9108;SDS011;4590;51.462;6.692;2022-09-09T03:55:39;2.15;;;0.80;;
9108;SDS011;4590;51.462;6.692;2022-09-09T03:58:09;3.20;;;1.00;;
9108;SDS011;4590;51.462;6.692;2022-09-09T04:00:35;3.17;;;0.80;;
9108;SDS011;4590;51.462;6.692;2022-09-09T04:03:01;1.90;;;1.00;;
9108;SDS011;4590;51.462;6.692;2022-09-09T04:05:26;4.83;;;0.90;;
9108;SDS011;4590;51.462;6.692;2022-09-09T04:07:52;2.08;;;0.77;;
9108;SDS011;4590;51.462;6.692;2022-09-09T04:10:17;2.97;;;0.97;;
9108;SDS011;4590;51.462;6.692;2022-09-09T04:12:42;3.10;;;1.00;;
9108;SDS011;4590;51.462;6.692;2022-09-09T04:15:08;3.08;;;1.30;;
9108;SDS011;4590;51.462;6.692;2022-09-09T04:17:34;2.25;;;0.82;;
9108;SDS011;4590;51.462;6.692;2022-09-09T04:20:01;4.57;;;0.82;;
9108;SDS011;4590;51.462;6.692;2022-09-09T04:22:27;2.45;;;0.70;;
9108;SDS011;4590;51.462;6.692;2022-09-09T04:24:52;1.77;;;0.90;;
9108;SDS011;4590;51.462;6.692;2022-09-09T04:27:17;2.53;;;0.90;;
9108;SDS011;4590;51.462;6.692;2022-09-09T04:29:42;6.77;;;1.03;;
9108;SDS011;4590;51.462;6.692;2022-09-09T04:32:08;5.60;;;1.10;;
9108;SDS011;4590;51.462;6.692;2022-09-09T04:34:33;2.53;;;0.73;;
9108;SDS011;4590;51.462;6.692;2022-09-09T04:36:58;4.80;;;1.70;;
9108;SDS011;4590;51.462;6.692;2022-09-09T04:39:25;2.58;;;0.90;;
9108;SDS011;4590;51.462;6.692;2022-09-09T04:41:50;5.33;;;1.10;;
9108;SDS011;4590;51.462;6.692;2022-09-09T04:44:15;3.33;;;1.10;;
9108;SDS011;4590;51.462;6.692;2022-09-09T04:46:41;4.27;;;0.97;;
9108;SDS011;4590;51.462;6.692;2022-09-09T04:49:06;2.83;;;1.00;;
9108;SDS011;4590;51.462;6.692;2022-09-09T04:51:31;4.27;;;1.00;;
9108;SDS011;4590;51.462;6.692;2022-09-09T04:53:57;2.27;;;0.70;;
9108;SDS011;4590;51.462;6.692;2022-09-09T04:56:22;3.53;;;1.10;;
9108;SDS011;4590;51.462;6.692;2022-09-09T04:58:47;4.13;;;1.03;;
9108;SDS011;4590;51.462;6.692;2022-09-09T05:01:14;2.80;;;0.90;;
9108;SDS011;4590;51.462;6.692;2022-09-09T05:03:42;3.72;;;1.00;;
9108;SDS011;4590;51.462;6.692;2022-09-09T05:06:11;3.05;;;0.93;;
9108;SDS011;4590;51.462;6.692;2022-09-09T05:08:38;3.58;;;1.05;;
9108;SDS011;4590;51.462;6.692;2022-09-09T05:11:26;2.60;;;0.80;;
9108;SDS011;4590;51.462;6.692;2022-09-09T05:13:53;4.85;;;1.23;;
9108;SDS011;4590;51.462;6.692;2022-09-09T05:16:19;3.33;;;0.90;;
9108;SDS011;4590;51.462;6.692;2022-09-09T05:18:45;4.32;;;1.27;;
9108;SDS011;4590;51.462;6.692;2022-09-09T05:21:11;3.65;;;1.10;;
9108;SDS011;4590;51.462;6.692;2022-09-09T05:23:38;3.90;;;1.20;;
9108;SDS011;4590;51.462;6.692;2022-09-09T05:26:04;3.73;;;1.40;;
9108;SDS011;4590;51.462;6.692;2022-09-09T05:30:56;5.30;;;1.40;;
9108;SDS011;4590;51.462;6.692;2022-09-09T05:33:25;4.75;;;1.20;;
9108;SDS011;4590;51.462;6.692;2022-09-09T05:35:56;5.20;;;1.13;;
9108;SDS011;4590;51.462;6.692;2022-09-09T05:38:26;6.15;;;1.15;;
9108;SDS011;4590;51.462;6.692;2022-09-09T05:40:52;4.57;;;1.25;;
9108;SDS011;4590;51.462;6.692;2022-09-09T05:43:18;3.80;;;1.55;;
9108;SDS011;4590;51.462;6.692;2022-09-09T05:45:45;4.40;;;1.23;;
9108;SDS011;4590;51.462;6.692;2022-09-09T05:48:12;3.55;;;1.63;;
9108;SDS011;4590;51.462;6.692;2022-09-09T05:50:38;3.78;;;1.13;;
9108;SDS011;4590;51.462;6.692;2022-09-09T05:53:03;4.33;;;1.30;;
9108;SDS011;4590;51.462;6.692;2022-09-09T05:55:28;5.07;;;1.23;;
9108;SDS011;4590;51.462;6.692;2022-09-09T05:57:54;5.07;;;1.70;;
9108;SDS011;4590;51.462;6.692;2022-09-09T06:00:19;3.60;;;1.23;;
9108;SDS011;4590;51.462;6.692;2022-09-09T06:02:50;6.60;;;1.20;;
9108;SDS011;4590;51.462;6.692;2022-09-09T06:05:17;5.68;;;1.15;;
9108;SDS011;4590;51.462;6.692;2022-09-09T06:07:42;4.13;;;1.40;;
9108;SDS011;4590;51.462;6.692;2022-09-09T06:10:09;4.82;;;1.20;;
9108;SDS011;4590;51.462;6.692;2022-09-09T06:12:35;4.43;;;1.52;;
9108;SDS011;4590;51.462;6.692;2022-09-09T06:15:00;5.53;;;1.75;;
9108;SDS011;4590;51.462;6.692;2022-09-09T06:17:26;3.15;;;0.95;;
9108;SDS011;4590;51.462;6.692;2022-09-09T06:19:51;3.20;;;1.13;;
9108;SDS011;4590;51.462;6.692;2022-09-09T06:22:17;3.67;;;1.20;;
9108;SDS011;4590;51.462;6.692;2022-09-09T06:24:42;4.90;;;1.40;;
9108;SDS011;4590;51.462;6.692;2022-09-09T06:27:08;6.47;;;1.20;;
9108;SDS011;4590;51.462;6.692;2022-09-09T06:29:33;4.40;;;1.30;;
9108;SDS011;4590;51.462;6.692;2022-09-09T06:31:58;5.97;;;1.10;;
9108;SDS011;4590;51.462;6.692;2022-09-09T06:34:24;5.73;;;1.00;;
9108;SDS011;4590;51.462;6.692;2022-09-09T06:36:49;3.80;;;1.10;;
9108;SDS011;4590;51.462;6.692;2022-09-09T06:39:14;3.00;;;1.03;;
9108;SDS011;4590;51.462;6.692;2022-09-09T06:41:40;3.40;;;1.15;;
9108;SDS011;4590;51.462;6.692;2022-09-09T06:44:07;4.72;;;1.50;;
9108;SDS011;4590;51.462;6.692;2022-09-09T06:46:32;5.47;;;1.20;;
9108;SDS011;4590;51.462;6.692;2022-09-09T06:48:58;3.57;;;1.10;;
9108;SDS011;4590;51.462;6.692;2022-09-09T06:51:32;7.30;;;1.50;;
9108;SDS011;4590;51.462;6.692;2022-09-09T06:53:59;4.45;;;1.02;;
9108;SDS011;4590;51.462;6.692;2022-09-09T06:56:30;4.25;;;1.20;;
9108;SDS011;4590;51.462;6.692;2022-09-09T06:58:59;2.92;;;1.20;;
9108;SDS011;4590;51.462;6.692;2022-09-09T07:01:29;5.88;;;1.50;;
9108;SDS011;4590;51.462;6.692;2022-09-09T07:03:59;2.55;;;1.20;;
9108;SDS011;4590;51.462;6.692;2022-09-09T07:06:26;4.25;;;1.15;;
9108;SDS011;4590;51.462;6.692;2022-09-09T07:08:54;4.40;;;1.05;;
9108;SDS011;4590;51.462;6.692;2022-09-09T07:11:25;3.60;;;1.05;;
9108;SDS011;4590;51.462;6.692;2022-09-09T07:13:52;5.68;;;0.98;;
9108;SDS011;4590;51.462;6.692;2022-09-09T07:16:18;5.03;;;0.93;;
9108;SDS011;4590;51.462;6.692;2022-09-09T07:18:45;6.65;;;1.00;;
9108;SDS011;4590;51.462;6.692;2022-09-09T07:21:11;2.67;;;0.90;;
9108;SDS011;4590;51.462;6.692;2022-09-09T07:23:39;4.82;;;1.17;;
9108;SDS011;4590;51.462;6.692;2022-09-09T07:26:12;4.88;;;1.00;;
9108;SDS011;4590;51.462;6.692;2022-09-09T07:28:39;3.85;;;0.85;;
9108;SDS011;4590;51.462;6.692;2022-09-09T07:31:06;3.67;;;0.90;;
9108;SDS011;4590;51.462;6.692;2022-09-09T07:33:33;3.05;;;0.70;;
9108;SDS011;4590;51.462;6.692;2022-09-09T07:36:06;2.78;;;0.90;;
9108;SDS011;4590;51.462;6.692;2022-09-09T07:38:40;6.90;;;0.98;;
9108;SDS011;4590;51.462;6.692;2022-09-09T07:41:12;4.07;;;1.13;;
9108;SDS011;4590;51.462;6.692;2022-09-09T07:43:41;4.05;;;1.02;;
9108;SDS011;4590;51.462;6.692;2022-09-09T07:46:07;3.38;;;0.90;;
9108;SDS011;4590;51.462;6.692;2022-09-09T07:48:33;5.78;;;0.98;;
9108;SDS011;4590;51.462;6.692;2022-09-09T07:53:30;2.20;;;0.60;;
9108;SDS011;4590;51.462;6.692;2022-09-09T07:58:26;5.05;;;0.82;;
9108;SDS011;4590;51.462;6.692;2022-09-09T08:03:17;2.33;;;0.90;;
9108;SDS011;4590;51.462;6.692;2022-09-09T08:08:08;3.03;;;0.77;;
9108;SDS011;4590;51.462;6.692;2022-09-09T08:12:59;4.30;;;0.80;;
9108;SDS011;4590;51.462;6.692;2022-09-09T08:17:49;3.40;;;1.00;;
9108;SDS011;4590;51.462;6.692;2022-09-09T08:22:40;3.60;;;0.82;;
9108;SDS011;4590;51.462;6.692;2022-09-09T08:25:07;3.17;;;0.90;;
9108;SDS011;4590;51.462;6.692;2022-09-09T08:27:33;3.00;;;0.70;;
9108;SDS011;4590;51.462;6.692;2022-09-09T08:32:24;3.70;;;0.73;;
9108;SDS011;4590;51.462;6.692;2022-09-09T08:37:14;4.10;;;0.87;;
9108;SDS011;4590;51.462;6.692;2022-09-09T08:42:20;3.50;;;0.80;;
9108;SDS011;4590;51.462;6.692;2022-09-09T08:58:30;2.30;;;0.60;;
9108;SDS011;4590;51.462;6.692;2022-09-09T09:09:00;4.57;;;1.33;;
9108;SDS011;4590;51.462;6.692;2022-09-09T09:11:40;3.55;;;0.80;;
9108;SDS011;4590;51.462;6.692;2022-09-09T09:14:22;4.15;;;0.73;;
9108;SDS011;4590;51.462;6.692;2022-09-09T09:16:53;2.13;;;0.80;;
9108;SDS011;4590;51.462;6.692;2022-09-09T09:19:23;2.00;;;0.70;;
9108;SDS011;4590;51.462;6.692;2022-09-09T09:21:58;6.35;;;1.25;;
9108;SDS011;4590;51.462;6.692;2022-09-09T09:24:57;3.88;;;0.70;;
9108;SDS011;4590;51.462;6.692;2022-09-09T09:27:34;4.55;;;1.08;;
9108;SDS011;4590;51.462;6.692;2022-09-09T09:30:12;3.88;;;0.77;;
9108;SDS011;4590;51.462;6.692;2022-09-09T09:32:40;3.85;;;1.00;;
9108;SDS011;4590;51.462;6.692;2022-09-09T09:35:12;4.07;;;0.77;;
9108;SDS011;4590;51.462;6.692;2022-09-09T09:37:39;2.00;;;0.57;;
9108;SDS011;4590;51.462;6.692;2022-09-09T09:40:09;3.63;;;1.00;;
9108;SDS011;4590;51.462;6.692;2022-09-09T09:42:35;2.33;;;0.77;;
9108;SDS011;4590;51.462;6.692;2022-09-09T09:47:57;1.83;;;0.68;;
9108;SDS011;4590;51.462;6.692;2022-09-09T09:50:30;2.95;;;0.77;;
9108;SDS011;4590;51.462;6.692;2022-09-09T09:52:58;6.95;;;0.70;;
9108;SDS011;4590;51.462;6.692;2022-09-09T09:55:26;3.22;;;1.10;;
9108;SDS011;4590;51.462;6.692;2022-09-09T09:58:00;2.78;;;0.90;;
9108;SDS011;4590;51.462;6.692;2022-09-09T10:00:26;5.60;;;0.90;;
9108;SDS011;4590;51.462;6.692;2022-09-09T10:13:58;2.55;;;0.60;;
9108;SDS011;4590;51.462;6.692;2022-09-09T10:38:14;2.33;;;0.73;;
9108;SDS011;4590;51.462;6.692;2022-09-09T10:43:46;1.98;;;0.70;;
9108;SDS011;4590;51.462;6.692;2022-09-09T10:46:27;4.07;;;0.70;;
9108;SDS011;4590;51.462;6.692;2022-09-09T10:49:07;1.40;;;0.50;;
9108;SDS011;4590;51.462;6.692;2022-09-09T10:54:23;3.58;;;0.70;;
9108;SDS011;4590;51.462;6.692;2022-09-09T10:57:10;2.22;;;0.70;;
9108;SDS011;4590;51.462;6.692;2022-09-09T10:59:42;3.53;;;0.75;;
9108;SDS011;4590;51.462;6.692;2022-09-09T11:02:15;2.50;;;0.52;;
9108;SDS011;4590;51.462;6.692;2022-09-09T11:04:48;3.03;;;1.02;;
9108;SDS011;4590;51.462;6.692;2022-09-09T11:07:20;1.65;;;0.47;;
9108;SDS011;4590;51.462;6.692;2022-09-09T11:09:54;3.22;;;0.80;;
9108;SDS011;4590;51.462;6.692;2022-09-09T11:12:24;3.15;;;0.70;;
9108;SDS011;4590;51.462;6.692;2022-09-09T11:15:06;2.38;;;0.55;;
9108;SDS011;4590;51.462;6.692;2022-09-09T11:17:40;2.28;;;0.60;;
9108;SDS011;4590;51.462;6.692;2022-09-09T11:20:11;3.20;;;0.50;;
9108;SDS011;4590;51.462;6.692;2022-09-09T11:25:17;1.75;;;0.60;;
9108;SDS011;4590;51.462;6.692;2022-09-09T11:30:19;1.55;;;0.50;;
9108;SDS011;4590;51.462;6.692;2022-09-09T11:33:08;4.22;;;0.73;;
9108;SDS011;4590;51.462;6.692;2022-09-09T11:38:26;2.08;;;0.60;;
9108;SDS011;4590;51.462;6.692;2022-09-09T11:41:13;1.38;;;0.50;;
9108;SDS011;4590;51.462;6.692;2022-09-09T11:43:44;2.70;;;0.50;;
9108;SDS011;4590;51.462;6.692;2022-09-09T11:46:15;2.20;;;0.43;;
9108;SDS011;4590;51.462;6.692;2022-09-09T11:48:43;1.58;;;0.50;;
9108;SDS011;4590;51.462;6.692;2022-09-09T11:51:25;1.15;;;0.40;;
9108;SDS011;4590;51.462;6.692;2022-09-09T11:54:03;2.08;;;0.50;;
9108;SDS011;4590;51.462;6.692;2022-09-09T11:56:54;0.98;;;0.50;;
9108;SDS011;4590;51.462;6.692;2022-09-09T12:01:50;1.80;;;0.40;;
9108;SDS011;4590;51.462;6.692;2022-09-09T12:04:46;1.73;;;0.50;;
9108;SDS011;4590;51.462;6.692;2022-09-09T12:10:01;1.60;;;0.40;;
9108;SDS011;4590;51.462;6.692;2022-09-09T12:12:46;4.68;;;0.73;;
9108;SDS011;4590;51.462;6.692;2022-09-09T12:17:50;1.98;;;0.40;;
9108;SDS011;4590;51.462;6.692;2022-09-09T12:23:05;2.08;;;0.50;;
9108;SDS011;4590;51.462;6.692;2022-09-09T12:28:58;1.30;;;0.30;;
9108;SDS011;4590;51.462;6.692;2022-09-09T12:31:46;3.00;;;0.55;;
9108;SDS011;4590;51.462;6.692;2022-09-09T12:42:45;1.92;;;0.40;;
9108;SDS011;4590;51.462;6.692;2022-09-09T12:47:56;1.52;;;0.35;;
9108;SDS011;4590;51.462;6.692;2022-09-09T12:50:30;2.33;;;0.50;;
9108;SDS011;4590;51.462;6.692;2022-09-09T12:53:01;2.50;;;0.52;;
9108;SDS011;4590;51.462;6.692;2022-09-09T12:56:07;1.38;;;0.65;;
9108;SDS011;4590;51.462;6.692;2022-09-09T12:58:44;3.17;;;0.70;;
9108;SDS011;4590;51.462;6.692;2022-09-09T13:01:18;1.65;;;0.50;;
9108;SDS011;4590;51.462;6.692;2022-09-09T13:03:49;2.90;;;0.57;;
9108;SDS011;4590;51.462;6.692;2022-09-09T13:08:47;3.78;;;0.57;;
9108;SDS011;4590;51.462;6.692;2022-09-09T13:13:42;3.15;;;0.50;;
9108;SDS011;4590;51.462;6.692;2022-09-09T13:16:19;1.42;;;0.50;;
9108;SDS011;4590;51.462;6.692;2022-09-09T13:18:47;2.95;;;0.75;;
9108;SDS011;4590;51.462;6.692;2022-09-09T13:23:38;2.70;;;0.52;;
9108;SDS011;4590;51.462;6.692;2022-09-09T13:28:32;1.27;;;0.77;;
9108;SDS011;4590;51.462;6.692;2022-09-09T13:30:59;2.25;;;0.60;;
9108;SDS011;4590;51.462;6.692;2022-09-09T13:33:30;2.10;;;0.50;;
9108;SDS011;4590;51.462;6.692;2022-09-09T13:38:53;1.88;;;0.50;;
9108;SDS011;4590;51.462;6.692;2022-09-09T13:41:24;2.45;;;1.02;;
9108;SDS011;4590;51.462;6.692;2022-09-09T13:43:55;4.10;;;0.68;;
9108;SDS011;4590;51.462;6.692;2022-09-09T13:46:25;1.10;;;0.40;;
9108;SDS011;4590;51.462;6.692;2022-09-09T13:49:17;5.70;;;0.80;;
9108;SDS011;4590;51.462;6.692;2022-09-09T13:51:46;1.95;;;0.57;;
9108;SDS011;4590;51.462;6.692;2022-09-09T13:54:14;1.58;;;0.45;;
9108;SDS011;4590;51.462;6.692;2022-09-09T13:56:40;5.18;;;0.82;;
9108;SDS011;4590;51.462;6.692;2022-09-09T13:59:11;1.67;;;0.30;;
9108;SDS011;4590;51.462;6.692;2022-09-09T14:01:38;2.03;;;0.60;;
9108;SDS011;4590;51.462;6.692;2022-09-09T14:06:31;2.10;;;0.60;;
9108;SDS011;4590;51.462;6.692;2022-09-09T14:11:22;1.67;;;0.50;;
9108;SDS011;4590;51.462;6.692;2022-09-09T14:16:14;2.17;;;0.73;;
9108;SDS011;4590;51.462;6.692;2022-09-09T14:21:06;1.88;;;0.55;;
9108;SDS011;4590;51.462;6.692;2022-09-09T14:25:57;1.55;;;0.52;;
9108;SDS011;4590;51.462;6.692;2022-09-09T14:30:47;3.22;;;0.65;;
9108;SDS011;4590;51.462;6.692;2022-09-09T14:35:39;1.20;;;0.30;;
9108;SDS011;4590;51.462;6.692;2022-09-09T14:38:06;0.80;;;0.20;;
9108;SDS011;4590;51.462;6.692;2022-09-09T14:40:33;1.63;;;0.35;;
9108;SDS011;4590;51.462;6.692;2022-09-09T14:43:00;1.92;;;0.20;;
9108;SDS011;4590;51.462;6.692;2022-09-09T14:45:25;0.82;;;0.20;;
9108;SDS011;4590;51.462;6.692;2022-09-09T14:50:17;0.52;;;0.17;;
9108;SDS011;4590;51.462;6.692;2022-09-09T14:52:43;0.52;;;0.20;;
9108;SDS011;4590;51.462;6.692;2022-09-09T14:55:09;1.02;;;0.32;;
9108;SDS011;4590;51.462;6.692;2022-09-09T14:57:34;0.43;;;0.10;;
9108;SDS011;4590;51.462;6.692;2022-09-09T15:02:26;1.25;;;0.28;;
9108;SDS011;4590;51.462;6.692;2022-09-09T15:07:17;1.15;;;0.30;;
9108;SDS011;4590;51.462;6.692;2022-09-09T15:09:44;2.17;;;0.50;;
9108;SDS011;4590;51.462;6.692;2022-09-09T15:12:09;1.55;;;0.65;;
9108;SDS011;4590;51.462;6.692;2022-09-09T15:17:00;1.13;;;0.33;;
9108;SDS011;4590;51.462;6.692;2022-09-09T15:19:26;1.70;;;0.30;;
9108;SDS011;4590;51.462;6.692;2022-09-09T15:21:51;1.50;;;0.40;;
9108;SDS011;4590;51.462;6.692;2022-09-09T15:24:16;1.60;;;0.40;;
9108;SDS011;4590;51.462;6.692;2022-09-09T15:26:42;0.85;;;0.43;;
9108;SDS011;4590;51.462;6.692;2022-09-09T15:29:07;2.20;;;0.40;;
9108;SDS011;4590;51.462;6.692;2022-09-09T15:31:33;1.35;;;0.40;;
9108;SDS011;4590;51.462;6.692;2022-09-09T15:34:00;1.27;;;0.40;;
9108;SDS011;4590;51.462;6.692;2022-09-09T15:36:28;1.13;;;0.47;;
9108;SDS011;4590;51.462;6.692;2022-09-09T15:38:55;3.47;;;0.63;;
9108;SDS011;4590;51.462;6.692;2022-09-09T15:41:21;1.40;;;0.40;;
9108;SDS011;4590;51.462;6.692;2022-09-09T15:43:51;0.85;;;0.30;;
9108;SDS011;4590;51.462;6.692;2022-09-09T15:46:23;1.27;;;0.50;;
9108;SDS011;4590;51.462;6.692;2022-09-09T15:51:23;3.03;;;0.60;;
9108;SDS011;4590;51.462;6.692;2022-09-09T15:53:53;1.00;;;0.45;;
9108;SDS011;4590;51.462;6.692;2022-09-09T15:56:20;1.10;;;0.47;;
9108;SDS011;4590;51.462;6.692;2022-09-09T15:58:45;1.48;;;0.60;;
9108;SDS011;4590;51.462;6.692;2022-09-09T16:03:38;3.15;;;0.80;;
9108;SDS011;4590;51.462;6.692;2022-09-09T16:06:06;1.50;;;0.68;;
9108;SDS011;4590;51.462;6.692;2022-09-09T16:08:32;2.13;;;0.70;;
9108;SDS011;4590;51.462;6.692;2022-09-09T16:11:09;2.20;;;0.70;;
9108;SDS011;4590;51.462;6.692;2022-09-09T16:13:42;2.03;;;0.85;;
9108;SDS011;4590;51.462;6.692;2022-09-09T16:16:09;2.92;;;0.90;;
9108;SDS011;4590;51.462;6.692;2022-09-09T16:18:44;2.90;;;0.73;;
9108;SDS011;4590;51.462;6.692;2022-09-09T16:21:16;4.00;;;1.33;;
9108;SDS011;4590;51.462;6.692;2022-09-09T16:23:46;2.80;;;0.85;;
9108;SDS011;4590;51.462;6.692;2022-09-09T16:26:12;2.00;;;0.80;;
9108;SDS011;4590;51.462;6.692;2022-09-09T16:28:39;4.30;;;0.90;;
9108;SDS011;4590;51.462;6.692;2022-09-09T16:31:06;2.70;;;0.65;;
9108;SDS011;4590;51.462;6.692;2022-09-09T16:33:32;1.55;;;0.50;;
9108;SDS011;4590;51.462;6.692;2022-09-09T16:36:01;1.70;;;0.55;;
9108;SDS011;4590;51.462;6.692;2022-09-09T16:38:30;2.50;;;0.73;;
9108;SDS011;4590;51.462;6.692;2022-09-09T16:40:58;2.73;;;0.90;;
9108;SDS011;4590;51.462;6.692;2022-09-09T16:43:25;1.67;;;1.00;;
9108;SDS011;4590;51.462;6.692;2022-09-09T16:45:50;2.40;;;0.88;;
9108;SDS011;4590;51.462;6.692;2022-09-09T16:48:15;3.63;;;0.90;;
9108;SDS011;4590;51.462;6.692;2022-09-09T16:50:41;2.50;;;1.47;;
9108;SDS011;4590;51.462;6.692;2022-09-09T16:53:06;2.28;;;0.60;;
9108;SDS011;4590;51.462;6.692;2022-09-09T16:55:33;1.63;;;0.70;;
9108;SDS011;4590;51.462;6.692;2022-09-09T16:58:02;3.45;;;0.88;;
9108;SDS011;4590;51.462;6.692;2022-09-09T17:00:28;3.50;;;1.00;;
9108;SDS011;4590;51.462;6.692;2022-09-09T17:02:53;3.03;;;1.27;;
9108;SDS011;4590;51.462;6.692;2022-09-09T17:05:18;4.05;;;1.20;;
9108;SDS011;4590;51.462;6.692;2022-09-09T17:07:43;3.10;;;1.33;;
9108;SDS011;4590;51.462;6.692;2022-09-09T17:10:09;3.40;;;1.50;;
9108;SDS011;4590;51.462;6.692;2022-09-09T17:12:34;9.40;;;2.13;;
9108;SDS011;4590;51.462;6.692;2022-09-09T17:19:53;3.93;;;1.47;;
9108;SDS011;4590;51.462;6.692;2022-09-09T17:22:18;6.10;;;1.80;;
9108;SDS011;4590;51.462;6.692;2022-09-09T17:24:45;2.92;;;1.40;;
9108;SDS011;4590;51.462;6.692;2022-09-09T17:27:11;4.55;;;1.17;;
9108;SDS011;4590;51.462;6.692;2022-09-09T17:32:03;4.67;;;1.10;;
9108;SDS011;4590;51.462;6.692;2022-09-09T17:34:30;3.97;;;1.13;;
9108;SDS011;4590;51.462;6.692;2022-09-09T17:36:55;3.13;;;0.90;;
9108;SDS011;4590;51.462;6.692;2022-09-09T17:39:20;3.00;;;0.87;;
9108;SDS011;4590;51.462;6.692;2022-09-09T17:41:46;3.97;;;0.90;;
9108;SDS011;4590;51.462;6.692;2022-09-09T17:44:11;1.73;;;0.70;;
9108;SDS011;4590;51.462;6.692;2022-09-09T17:46:37;3.05;;;0.90;;
9108;SDS011;4590;51.462;6.692;2022-09-09T17:49:06;4.18;;;0.90;;
9108;SDS011;4590;51.462;6.692;2022-09-09T17:51:34;2.75;;;1.13;;
9108;SDS011;4590;51.462;6.692;2022-09-09T17:54:02;5.05;;;1.27;;
9108;SDS011;4590;51.462;6.692;2022-09-09T17:56:35;4.82;;;1.45;;
9108;SDS011;4590;51.462;6.692;2022-09-09T17:59:02;3.95;;;1.25;;
9108;SDS011;4590;51.462;6.692;2022-09-09T18:01:30;3.97;;;1.48;;
9108;SDS011;4590;51.462;6.692;2022-09-09T18:03:58;5.30;;;1.58;;
9108;SDS011;4590;51.462;6.692;2022-09-09T18:06:26;4.63;;;1.80;;
9108;SDS011;4590;51.462;6.692;2022-09-09T18:08:58;5.20;;;1.67;;
9108;SDS011;4590;51.462;6.692;2022-09-09T18:11:27;4.47;;;1.60;;
9108;SDS011;4590;51.462;6.692;2022-09-09T18:13:56;4.97;;;1.95;;
9108;SDS011;4590;51.462;6.692;2022-09-09T18:16:24;6.13;;;1.98;;
9108;SDS011;4590;51.462;6.692;2022-09-09T18:18:51;4.60;;;1.77;;
9108;SDS011;4590;51.462;6.692;2022-09-09T18:21:17;5.20;;;1.98;;
9108;SDS011;4590;51.462;6.692;2022-09-09T18:23:44;5.63;;;1.88;;
9108;SDS011;4590;51.462;6.692;2022-09-09T18:26:14;4.35;;;1.90;;
9108;SDS011;4590;51.462;6.692;2022-09-09T18:28:41;3.88;;;1.60;;
9108;SDS011;4590;51.462;6.692;2022-09-09T18:31:08;3.97;;;1.30;;
9108;SDS011;4590;51.462;6.692;2022-09-09T18:33:36;3.75;;;1.58;;
9108;SDS011;4590;51.462;6.692;2022-09-09T18:36:04;4.47;;;1.70;;
9108;SDS011;4590;51.462;6.692;2022-09-09T18:38:36;2.75;;;1.15;;
9108;SDS011;4590;51.462;6.692;2022-09-09T18:43:59;2.45;;;1.00;;
9108;SDS011;4590;51.462;6.692;2022-09-09T18:46:26;5.88;;;1.42;;
9108;SDS011;4590;51.462;6.692;2022-09-09T18:48:53;4.13;;;1.50;;
9108;SDS011;4590;51.462;6.692;2022-09-09T18:51:21;3.22;;;1.10;;
9108;SDS011;4590;51.462;6.692;2022-09-09T18:53:48;3.72;;;1.20;;
9108;SDS011;4590;51.462;6.692;2022-09-09T18:56:15;4.90;;;1.20;;
9108;SDS011;4590;51.462;6.692;2022-09-09T18:58:40;2.67;;;0.80;;
9108;SDS011;4590;51.462;6.692;2022-09-09T19:01:09;3.65;;;0.80;;
9108;SDS011;4590;51.462;6.692;2022-09-09T19:03:36;2.40;;;0.80;;
9108;SDS011;4590;51.462;6.692;2022-09-09T19:06:23;2.50;;;0.88;;
9108;SDS011;4590;51.462;6.692;2022-09-09T19:11:16;2.80;;;0.77;;
9108;SDS011;4590;51.462;6.692;2022-09-09T19:13:50;2.70;;;0.90;;
9108;SDS011;4590;51.462;6.692;2022-09-09T19:16:17;2.10;;;0.80;;